createdAt,value
2016-09-02T00:00:43.621Z,13.07
2016-09-02T00:01:43.851Z,12.96
2016-09-02T00:02:43.601Z,12.96
2016-09-02T00:03:43.727Z,12.91
2016-09-02T00:04:43.588Z,12.95
2016-09-02T00:05:43.831Z,12.88
2016-09-02T00:06:43.606Z,12.84
2016-09-02T00:07:43.617Z,12.86
2016-09-02T00:08:43.616Z,12.83
2016-09-02T00:09:43.711Z,12.78
2016-09-02T00:10:43.605Z,12.76
2016-09-02T00:11:43.605Z,12.76
2016-09-02T00:12:44.328Z,12.77
2016-09-02T00:13:43.594Z,12.78
2016-09-02T00:14:43.585Z,12.86
2016-09-02T00:15:43.630Z,12.84
2016-09-02T00:16:43.577Z,12.84
2016-09-02T00:17:43.566Z,12.78
2016-09-02T00:18:43.579Z,12.88
2016-09-02T00:19:43.478Z,12.76
2016-09-02T00:20:43.429Z,12.74
2016-09-02T00:21:43.422Z,12.78
2016-09-02T00:22:43.689Z,12.77
2016-09-02T00:23:43.409Z,12.7
2016-09-02T00:24:43.423Z,12.73
2016-09-02T00:25:43.852Z,12.69
2016-09-02T00:26:43.424Z,12.66
2016-09-02T00:27:43.414Z,12.7
2016-09-02T00:28:43.411Z,12.7
2016-09-02T00:29:43.408Z,12.66
2016-09-02T00:30:43.394Z,12.66
2016-09-02T00:31:43.400Z,12.65
2016-09-02T00:32:43.274Z,12.58
2016-09-02T00:33:43.265Z,12.63
2016-09-02T00:34:43.262Z,12.63
2016-09-02T00:35:43.258Z,12.63
2016-09-02T00:36:43.242Z,12.63
2016-09-02T00:37:43.237Z,12.62
2016-09-02T00:38:43.254Z,12.62
2016-09-02T00:39:43.235Z,12.62
2016-09-02T00:40:43.222Z,12.71
2016-09-02T00:41:43.239Z,12.7
2016-09-02T00:42:43.222Z,12.71
2016-09-02T00:43:43.259Z,12.77
2016-09-02T00:44:43.195Z,12.8
2016-09-02T00:45:43.214Z,12.76
2016-09-02T00:46:43.203Z,12.77
2016-09-02T00:47:43.196Z,12.81
2016-09-02T00:48:43.202Z,12.77
2016-09-02T00:49:43.204Z,12.74
2016-09-02T00:50:43.894Z,12.73
2016-09-02T00:51:43.169Z,12.63
2016-09-02T00:52:43.148Z,12.62
2016-09-02T00:53:43.150Z,12.66
2016-09-02T00:54:43.145Z,12.56
2016-09-02T00:55:43.147Z,12.58
2016-09-02T00:56:43.130Z,12.62
2016-09-02T00:57:43.129Z,12.53
2016-09-02T00:58:43.126Z,12.51
2016-09-02T00:59:43.109Z,12.53
2016-09-02T01:00:43.108Z,12.52
2016-09-02T01:01:43.095Z,12.63
2016-09-02T01:02:43.099Z,12.63
2016-09-02T01:03:43.820Z,12.51
2016-09-02T01:04:43.088Z,12.52
2016-09-02T01:05:43.079Z,12.55
2016-09-02T01:06:43.077Z,12.53
2016-09-02T01:07:43.059Z,12.55
2016-09-02T01:08:43.062Z,12.43
2016-09-02T01:09:43.052Z,12.37
2016-09-02T01:10:43.059Z,12.44
2016-09-02T01:11:43.046Z,12.48
2016-09-02T01:12:43.029Z,12.45
2016-09-02T01:13:43.033Z,12.43
2016-09-02T01:14:43.035Z,12.43
2016-09-02T01:15:43.012Z,12.41
2016-09-02T01:16:43.014Z,12.43
2016-09-02T01:17:43.008Z,12.44
2016-09-02T01:18:43.007Z,12.36
2016-09-02T01:19:42.987Z,12.41
2016-09-02T01:20:42.987Z,12.28
2016-09-02T01:21:42.984Z,12.36
2016-09-02T01:22:43.718Z,12.34
2016-09-02T01:23:42.966Z,12.34
2016-09-02T01:24:42.971Z,12.37
2016-09-02T01:25:42.965Z,12.33
2016-09-02T01:26:42.954Z,12.26
2016-09-02T01:27:42.935Z,12.26
2016-09-02T01:28:43.658Z,12.43
2016-09-02T01:29:42.945Z,12.36
2016-09-02T01:30:42.921Z,12.38
2016-09-02T01:31:42.927Z,12.28
2016-09-02T01:32:42.921Z,12.36
2016-09-02T01:33:42.907Z,12.37
2016-09-02T01:34:42.907Z,12.33
2016-09-02T01:35:43.670Z,12.36
2016-09-02T01:36:42.892Z,12.33
2016-09-02T01:37:42.890Z,12.33
2016-09-02T01:38:42.871Z,12.37
2016-09-02T01:39:42.870Z,12.33
2016-09-02T01:40:42.858Z,12.31
2016-09-02T01:41:42.860Z,12.29
2016-09-02T01:42:42.860Z,12.22
2016-09-02T01:43:42.847Z,12.19
2016-09-02T01:44:42.845Z,12.19
2016-09-02T01:45:42.829Z,12.13
2016-09-02T01:46:42.823Z,12.13
2016-09-02T01:47:42.824Z,12.1
2016-09-02T01:48:42.830Z,12.07
2016-09-02T01:49:42.826Z,12.11
2016-09-02T01:50:42.805Z,12.08
2016-09-02T01:51:42.793Z,12.08
2016-09-02T01:52:42.788Z,12.08
2016-09-02T01:53:42.791Z,12.03
2016-09-02T01:54:42.773Z,12.05
2016-09-02T01:55:42.778Z,12.05
2016-09-02T01:56:42.770Z,12.16
2016-09-02T01:57:42.762Z,12.07
2016-09-02T01:58:43.470Z,12.07
2016-09-02T01:59:42.752Z,12.08
2016-09-02T02:00:42.853Z,12.03
2016-09-02T02:01:43.616Z,12.04
2016-09-02T02:02:42.723Z,12.03
2016-09-02T02:03:42.731Z,12
2016-09-02T02:04:42.712Z,12.04
2016-09-02T02:05:42.707Z,12.03
2016-09-02T02:06:42.711Z,12
2016-09-02T02:07:42.688Z,12
2016-09-02T02:08:42.696Z,12
2016-09-02T02:09:42.679Z,11.97
2016-09-02T02:10:42.677Z,12.04
2016-09-02T02:11:42.671Z,11.95
2016-09-02T02:12:42.665Z,11.85
2016-09-02T02:13:42.655Z,11.85
2016-09-02T02:14:42.657Z,11.84
2016-09-02T02:15:42.668Z,11.81
2016-09-02T02:16:42.666Z,11.78
2016-09-02T02:17:42.630Z,11.79
2016-09-02T02:18:43.410Z,11.66
2016-09-02T02:19:42.617Z,11.66
2016-09-02T02:20:42.613Z,11.71
2016-09-02T02:21:42.617Z,11.66
2016-09-02T02:22:42.592Z,11.66
2016-09-02T02:23:42.602Z,11.71
2016-09-02T02:24:42.598Z,11.76
2016-09-02T02:25:42.576Z,11.79
2016-09-02T02:26:42.575Z,11.82
2016-09-02T02:27:42.562Z,11.81
2016-09-02T02:28:43.314Z,11.82
2016-09-02T02:29:42.560Z,11.88
2016-09-02T02:30:42.549Z,11.78
2016-09-02T02:31:42.538Z,11.78
2016-09-02T02:32:42.525Z,11.76
2016-09-02T02:33:42.529Z,11.73
2016-09-02T02:34:42.524Z,11.7
2016-09-02T02:35:42.603Z,11.66
2016-09-02T02:36:42.521Z,11.75
2016-09-02T02:37:42.506Z,11.76
2016-09-02T02:38:42.492Z,11.63
2016-09-02T02:39:42.489Z,11.66
2016-09-02T02:40:42.483Z,11.68
2016-09-02T02:41:42.477Z,11.61
2016-09-02T02:42:42.517Z,11.66
2016-09-02T02:43:42.459Z,11.61
2016-09-02T02:44:42.454Z,11.63
2016-09-02T02:45:42.447Z,11.53
2016-09-02T02:46:42.444Z,11.57
2016-09-02T02:47:42.452Z,11.51
2016-09-02T02:48:42.427Z,11.48
2016-09-02T02:49:42.423Z,11.56
2016-09-02T02:50:42.416Z,11.45
2016-09-02T02:51:42.422Z,11.56
2016-09-02T02:52:42.395Z,11.53
2016-09-02T02:53:42.392Z,11.59
2016-09-02T02:54:42.392Z,11.52
2016-09-02T02:55:42.381Z,11.52
2016-09-02T02:56:42.376Z,11.52
2016-09-02T02:57:42.366Z,11.41
2016-09-02T02:58:43.107Z,11.52
2016-09-02T02:59:42.367Z,11.43
2016-09-02T03:00:42.347Z,11.52
2016-09-02T03:01:42.339Z,11.48
2016-09-02T03:02:42.332Z,11.48
2016-09-02T03:03:42.352Z,11.46
2016-09-02T03:04:42.318Z,11.49
2016-09-02T03:05:42.317Z,11.52
2016-09-02T03:06:42.320Z,11.45
2016-09-02T03:07:42.296Z,11.56
2016-09-02T03:08:42.297Z,11.49
2016-09-02T03:09:42.302Z,11.52
2016-09-02T03:10:42.275Z,11.52
2016-09-02T03:11:42.284Z,11.46
2016-09-02T03:12:42.266Z,11.49
2016-09-02T03:13:42.268Z,11.48
2016-09-02T03:14:42.276Z,11.57
2016-09-02T03:15:42.251Z,11.46
2016-09-02T03:16:42.241Z,11.48
2016-09-02T03:17:42.233Z,11.46
2016-09-02T03:18:42.230Z,11.48
2016-09-02T03:19:42.223Z,11.43
2016-09-02T03:20:42.216Z,11.42
2016-09-02T03:21:42.237Z,11.42
2016-09-02T03:22:42.200Z,11.42
2016-09-02T03:23:42.195Z,11.45
2016-09-02T03:24:42.191Z,11.48
2016-09-02T03:25:42.183Z,11.41
2016-09-02T03:26:42.172Z,11.43
2016-09-02T03:27:42.180Z,11.41
2016-09-02T03:28:42.173Z,11.34
2016-09-02T03:29:42.147Z,11.39
2016-09-02T03:30:42.145Z,11.28
2016-09-02T03:31:42.147Z,11.31
2016-09-02T03:32:42.842Z,11.33
2016-09-02T03:33:42.141Z,11.34
2016-09-02T03:34:42.124Z,11.33
2016-09-02T03:35:42.121Z,11.3
2016-09-02T03:36:42.107Z,11.28
2016-09-02T03:37:42.096Z,11.34
2016-09-02T03:38:42.298Z,11.27
2016-09-02T03:39:42.086Z,11.31
2016-09-02T03:40:42.076Z,11.27
2016-09-02T03:41:42.071Z,11.21
2016-09-02T03:42:42.287Z,11.2
2016-09-02T03:43:42.064Z,11.15
2016-09-02T03:44:42.050Z,11.13
2016-09-02T03:45:42.047Z,11.15
2016-09-02T03:46:42.035Z,11.15
2016-09-02T03:47:42.037Z,11.16
2016-09-02T03:48:42.029Z,11.15
2016-09-02T03:49:42.022Z,11.12
2016-09-02T03:50:42.023Z,11.08
2016-09-02T03:51:42.007Z,11.08
2016-09-02T03:52:42.001Z,11.06
2016-09-02T03:53:41.990Z,11.1
2016-09-02T03:54:41.983Z,11.05
2016-09-02T03:55:41.987Z,11.09
2016-09-02T03:56:41.973Z,11.12
2016-09-02T03:57:41.966Z,11.26
2016-09-02T03:58:41.956Z,11.3
2016-09-02T03:59:41.949Z,11.3
2016-09-02T04:00:41.944Z,11.43
2016-09-02T04:01:41.937Z,11.45
2016-09-02T04:02:41.937Z,11.57
2016-09-02T04:03:41.926Z,11.61
2016-09-02T04:04:41.911Z,11.66
2016-09-02T04:05:41.904Z,11.67
2016-09-02T04:06:41.898Z,11.66
2016-09-02T04:07:41.901Z,11.86
2016-09-02T04:08:41.887Z,11.85
2016-09-02T04:09:41.878Z,11.82
2016-09-02T04:10:41.872Z,11.98
2016-09-02T04:11:41.869Z,11.89
2016-09-02T04:12:41.864Z,12
2016-09-02T04:13:41.857Z,12.01
2016-09-02T04:14:41.847Z,12.01
2016-09-02T04:15:41.862Z,12.08
2016-09-02T04:16:41.834Z,12.15
2016-09-02T04:17:41.826Z,12.13
2016-09-02T04:18:41.824Z,12.23
2016-09-02T04:19:41.906Z,12.23
2016-09-02T04:20:41.802Z,12.33
2016-09-02T04:21:41.808Z,12.37
2016-09-02T04:22:41.794Z,12.33
2016-09-02T04:23:42.500Z,12.38
2016-09-02T04:24:41.783Z,12.43
2016-09-02T04:25:41.982Z,12.47
2016-09-02T04:26:41.775Z,12.51
2016-09-02T04:27:41.762Z,12.53
2016-09-02T04:28:41.771Z,12.43
2016-09-02T04:29:41.763Z,12.56
2016-09-02T04:30:41.741Z,12.51
2016-09-02T04:31:41.743Z,12.48
2016-09-02T04:32:41.728Z,12.48
2016-09-02T04:33:42.178Z,12.52
2016-09-02T04:34:41.717Z,12.44
2016-09-02T04:35:41.724Z,12.37
2016-09-02T04:36:41.701Z,12.44
2016-09-02T04:37:42.414Z,12.38
2016-09-02T04:38:41.691Z,12.38
2016-09-02T04:39:41.703Z,12.29
2016-09-02T04:40:41.698Z,12.29
2016-09-02T04:41:42.398Z,12.25
2016-09-02T04:42:41.724Z,12.23
2016-09-02T04:43:41.668Z,12.19
2016-09-02T04:44:41.669Z,12.18
2016-09-02T04:45:41.651Z,12.19
2016-09-02T04:46:41.665Z,12.03
2016-09-02T04:47:41.639Z,12.05
2016-09-02T04:48:41.636Z,12.01
2016-09-02T04:49:41.622Z,11.95
2016-09-02T04:50:42.335Z,11.97
2016-09-02T04:51:41.615Z,12.03
2016-09-02T04:52:41.615Z,11.94
2016-09-02T04:53:42.320Z,11.94
2016-09-02T04:54:41.597Z,11.82
2016-09-02T04:55:41.591Z,11.88
2016-09-02T04:56:41.582Z,11.88
2016-09-02T04:57:41.571Z,11.94
2016-09-02T04:58:41.572Z,11.88
2016-09-02T04:59:41.565Z,11.91
2016-09-02T05:00:41.551Z,11.94
2016-09-02T05:01:41.550Z,11.88
2016-09-02T05:02:41.563Z,11.95
2016-09-02T05:03:41.545Z,11.94
2016-09-02T05:04:41.529Z,11.91
2016-09-02T05:05:41.517Z,12
2016-09-02T05:06:41.531Z,12
2016-09-02T05:07:41.503Z,12.01
2016-09-02T05:08:41.501Z,12.03
2016-09-02T05:09:41.498Z,12.07
2016-09-02T05:10:41.492Z,12.1
2016-09-02T05:11:41.498Z,12.13
2016-09-02T05:12:41.508Z,12.18
2016-09-02T05:13:41.515Z,12.18
2016-09-02T05:14:41.526Z,12.29
2016-09-02T05:15:41.477Z,12.33
2016-09-02T05:16:41.448Z,12.28
2016-09-02T05:17:41.448Z,12.45
2016-09-02T05:18:41.458Z,12.52
2016-09-02T05:19:41.462Z,12.52
2016-09-02T05:20:41.486Z,12.61
2016-09-02T05:21:41.469Z,12.65
2016-09-02T05:22:41.477Z,12.73
2016-09-02T05:23:41.488Z,12.78
2016-09-02T05:24:41.501Z,12.88
2016-09-02T05:25:41.451Z,12.92
2016-09-02T05:26:41.474Z,13.1
2016-09-02T05:27:41.457Z,13.14
2016-09-02T05:28:41.424Z,13.19
2016-09-02T05:29:42.134Z,13.21
2016-09-02T05:30:41.470Z,13.31
2016-09-02T05:31:41.442Z,13.45
2016-09-02T05:32:41.456Z,13.44
2016-09-02T05:33:41.449Z,13.6
2016-09-02T05:34:41.414Z,13.69
2016-09-02T05:35:41.415Z,13.7
2016-09-02T05:36:41.445Z,13.7
2016-09-02T05:37:42.179Z,13.83
2016-09-02T05:38:41.445Z,13.9
2016-09-02T05:39:41.453Z,13.9
2016-09-02T05:40:41.408Z,13.94
2016-09-02T05:41:41.410Z,13.95
2016-09-02T05:42:41.412Z,13.93
2016-09-02T05:43:42.115Z,14.08
2016-09-02T05:44:41.383Z,14.06
2016-09-02T05:45:41.388Z,14.12
2016-09-02T05:46:42.107Z,14.28
2016-09-02T05:47:41.399Z,14.27
2016-09-02T05:48:41.412Z,14.27
2016-09-02T05:49:41.419Z,14.38
2016-09-02T05:50:41.421Z,14.39
2016-09-02T05:51:41.442Z,14.39
2016-09-02T05:52:41.435Z,14.42
2016-09-02T05:53:41.350Z,14.51
2016-09-02T05:54:41.348Z,14.45
2016-09-02T05:55:41.354Z,14.48
2016-09-02T05:56:41.370Z,14.53
2016-09-02T05:57:41.367Z,14.48
2016-09-02T05:58:41.375Z,14.46
2016-09-02T05:59:41.391Z,14.52
2016-09-02T06:00:41.463Z,14.39
2016-09-02T06:01:42.110Z,14.39
2016-09-02T06:02:41.360Z,14.41
2016-09-02T06:03:41.338Z,14.31
2016-09-02T06:04:41.351Z,14.38
2016-09-02T06:05:41.793Z,14.27
2016-09-02T06:06:41.324Z,14.42
2016-09-02T06:07:41.352Z,14.42
2016-09-02T06:08:41.342Z,14.41
2016-09-02T06:09:42.074Z,14.49
2016-09-02T06:10:42.041Z,14.52
2016-09-02T06:11:41.303Z,14.51
2016-09-02T06:12:41.316Z,14.53
2016-09-02T06:13:41.901Z,14.46
2016-09-02T06:14:41.316Z,14.64
2016-09-02T06:15:41.324Z,14.67
2016-09-02T06:16:41.333Z,14.6
2016-09-02T06:17:41.348Z,14.71
2016-09-02T06:18:41.315Z,14.83
2016-09-02T06:19:41.266Z,14.97
2016-09-02T06:20:41.328Z,14.98
2016-09-02T06:21:41.364Z,14.97
2016-09-02T06:22:41.309Z,15
2016-09-02T06:23:41.339Z,15.13
2016-09-02T06:24:41.293Z,15.13
2016-09-02T06:25:41.340Z,15.1
2016-09-02T06:26:41.323Z,15.08
2016-09-02T06:27:41.330Z,15.1
2016-09-02T06:28:41.809Z,15.05
2016-09-02T06:29:41.366Z,15.05
2016-09-02T06:30:41.955Z,15.08
2016-09-02T06:31:41.257Z,14.97
2016-09-02T06:32:41.280Z,15.02
2016-09-02T06:33:41.257Z,15.12
2016-09-02T06:34:41.328Z,15.16
2016-09-02T06:35:43.335Z,15.2
2016-09-02T06:36:41.283Z,15.37
2016-09-02T06:37:41.280Z,15.35
2016-09-02T06:38:41.289Z,15.45
2016-09-02T06:39:41.341Z,15.58
2016-09-02T06:40:41.203Z,15.6
2016-09-02T06:41:41.180Z,15.73
2016-09-02T06:42:41.390Z,15.91
2016-09-02T06:43:41.242Z,15.92
2016-09-02T06:44:41.232Z,16.07
2016-09-02T06:45:41.265Z,16.18
2016-09-02T06:46:41.268Z,16.22
2016-09-02T06:47:41.253Z,16.27
2016-09-02T06:48:41.299Z,16.34
2016-09-02T06:49:41.328Z,16.51
2016-09-02T06:50:55.869Z,16.74
2016-09-02T06:51:41.145Z,16.95
2016-09-02T06:52:41.393Z,17.21
2016-09-02T06:53:41.270Z,17.32
2016-09-02T06:54:41.123Z,17.54
2016-09-02T06:55:41.260Z,17.76
2016-09-02T06:56:41.244Z,17.81
2016-09-02T06:57:41.222Z,17.84
2016-09-02T06:58:41.938Z,17.8
2016-09-02T06:59:41.268Z,17.74
2016-09-02T07:00:41.105Z,17.65
2016-09-02T07:01:41.104Z,17.74
2016-09-02T07:02:41.109Z,17.76
2016-09-02T07:03:41.935Z,17.81
2016-09-02T07:04:41.225Z,17.68
2016-09-02T07:05:41.215Z,17.73
2016-09-02T07:06:41.240Z,17.58
2016-09-02T07:07:41.107Z,17.55
2016-09-02T07:08:41.260Z,17.66
2016-09-02T07:09:41.707Z,17.98
2016-09-02T07:10:41.682Z,18.17
2016-09-02T07:11:41.076Z,18.53
2016-09-02T07:12:41.077Z,18.68
2016-09-02T07:13:41.087Z,19
2016-09-02T07:14:41.075Z,19.05
2016-09-02T07:15:41.085Z,19.31
2016-09-02T07:16:41.284Z,19.46
2016-09-02T07:17:41.193Z,19.6
2016-09-02T07:18:41.215Z,19.63
2016-09-02T07:19:41.055Z,19.65
2016-09-02T07:20:41.798Z,19.67
2016-09-02T07:21:41.209Z,19.68
2016-09-02T07:22:41.052Z,19.71
2016-09-02T07:23:41.064Z,19.68
2016-09-02T07:24:41.083Z,19.6
2016-09-02T07:25:41.794Z,19.57
2016-09-02T07:26:41.095Z,19.57
2016-09-02T07:27:41.087Z,19.55
2016-09-02T07:28:41.086Z,19.65
2016-09-02T07:29:41.045Z,19.63
2016-09-02T07:30:41.071Z,19.7
2016-09-02T07:31:41.077Z,19.79
2016-09-02T07:32:41.093Z,19.92
2016-09-02T07:33:41.044Z,19.98
2016-09-02T07:34:41.910Z,20.04
2016-09-02T07:35:41.090Z,20.02
2016-09-02T07:36:41.062Z,20.22
2016-09-02T07:37:41.068Z,20.4
2016-09-02T07:38:41.085Z,20.48
2016-09-02T07:39:41.065Z,20.63
2016-09-02T07:40:41.085Z,20.86
2016-09-02T07:41:41.084Z,21.04
2016-09-02T07:42:41.069Z,21.18
2016-09-02T07:43:41.053Z,21.27
2016-09-02T07:44:41.075Z,21.27
2016-09-02T07:45:41.030Z,21.45
2016-09-02T07:46:41.041Z,21.41
2016-09-02T07:47:41.048Z,21.52
2016-09-02T07:48:41.055Z,21.59
2016-09-02T07:49:41.073Z,21.59
2016-09-02T07:50:41.555Z,21.62
2016-09-02T07:51:41.058Z,21.64
2016-09-02T07:52:41.063Z,21.53
2016-09-02T07:53:41.059Z,21.51
2016-09-02T07:54:41.078Z,21.51
2016-09-02T07:55:41.030Z,21.58
2016-09-02T07:56:41.051Z,21.56
2016-09-02T07:57:41.058Z,21.59
2016-09-02T07:58:41.038Z,21.61
2016-09-02T07:59:41.037Z,21.48
2016-09-02T08:00:41.052Z,21.49
2016-09-02T08:01:41.048Z,21.43
2016-09-02T08:02:41.050Z,21.37
2016-09-02T08:03:41.053Z,21.41
2016-09-02T08:04:41.212Z,21.34
2016-09-02T08:05:41.098Z,21.25
2016-09-02T08:06:41.056Z,21.27
2016-09-02T08:07:41.060Z,21.21
2016-09-02T08:08:41.054Z,21.22
2016-09-02T08:09:55.715Z,21.3
2016-09-02T08:10:41.007Z,21.33
2016-09-02T08:11:41.046Z,21.31
2016-09-02T08:12:41.010Z,21.31
2016-09-02T08:13:41.031Z,21.45
2016-09-02T08:14:41.040Z,21.62
2016-09-02T08:15:41.008Z,21.73
2016-09-02T08:16:41.012Z,21.89
2016-09-02T08:17:41.050Z,22.02
2016-09-02T08:18:41.026Z,22.09
2016-09-02T08:19:41.021Z,22.23
2016-09-02T08:20:41.038Z,22.34
2016-09-02T08:21:41.003Z,22.27
2016-09-02T08:22:41.152Z,22.38
2016-09-02T08:23:41.005Z,22.38
2016-09-02T08:24:41.139Z,22.3
2016-09-02T08:25:41.145Z,22.46
2016-09-02T08:26:41.548Z,22.48
2016-09-02T08:27:41.022Z,22.38
2016-09-02T08:28:41.736Z,22.54
2016-09-02T08:29:41.017Z,22.39
2016-09-02T08:30:41.050Z,22.48
2016-09-02T08:31:41.016Z,22.44
2016-09-02T08:32:41.016Z,22.3
2016-09-02T08:33:41.019Z,22.33
2016-09-02T08:34:41.013Z,22.22
2016-09-02T08:35:41.164Z,22.24
2016-09-02T08:36:41.148Z,22.22
2016-09-02T08:37:41.802Z,22.31
2016-09-02T08:38:41.143Z,22.27
2016-09-02T08:39:41.013Z,22.31
2016-09-02T08:40:41.183Z,22.39
2016-09-02T08:41:41.014Z,22.51
2016-09-02T08:42:41.020Z,22.54
2016-09-02T08:43:41.042Z,22.61
2016-09-02T08:44:41.021Z,22.73
2016-09-02T08:45:41.023Z,22.84
2016-09-02T08:46:41.041Z,22.86
2016-09-02T08:47:41.129Z,23
2016-09-02T08:48:41.116Z,23.12
2016-09-02T08:49:41.147Z,23.1
2016-09-02T08:50:41.173Z,22.91
2016-09-02T08:51:41.166Z,22.78
2016-09-02T08:52:41.160Z,22.64
2016-09-02T08:53:41.167Z,22.51
2016-09-02T08:54:41.148Z,22.44
2016-09-02T08:55:41.030Z,22.41
2016-09-02T08:56:41.025Z,22.3
2016-09-02T08:57:41.059Z,22.24
2016-09-02T08:58:41.019Z,22.18
2016-09-02T08:59:41.158Z,22.23
2016-09-02T09:00:41.123Z,22.18
2016-09-02T09:01:41.163Z,22.18
2016-09-02T09:02:41.130Z,22.16
2016-09-02T09:03:41.137Z,22.18
2016-09-02T09:04:41.178Z,22.09
2016-09-02T09:05:41.183Z,22.09
2016-09-02T09:06:41.171Z,22.02
2016-09-02T09:07:41.177Z,21.85
2016-09-02T09:08:41.163Z,21.92
2016-09-02T09:09:41.172Z,21.89
2016-09-02T09:10:41.066Z,22.04
2016-09-02T09:11:41.043Z,22.02
2016-09-02T09:12:41.113Z,22.07
2016-09-02T09:13:41.141Z,22.14
2016-09-02T09:14:41.146Z,22.38
2016-09-02T09:15:41.166Z,22.46
2016-09-02T09:16:41.136Z,22.49
2016-09-02T09:17:41.141Z,22.78
2016-09-02T09:18:41.142Z,22.89
2016-09-02T09:19:41.173Z,23.01
2016-09-02T09:20:41.165Z,23.14
2016-09-02T09:21:41.160Z,23.21
2016-09-02T09:22:41.164Z,23.32
2016-09-02T09:23:41.049Z,23.32
2016-09-02T09:24:41.038Z,23.4
2016-09-02T09:25:41.087Z,23.38
2016-09-02T09:26:41.092Z,23.35
2016-09-02T09:27:41.191Z,23.24
2016-09-02T09:28:41.107Z,23.15
2016-09-02T09:29:41.115Z,23.09
2016-09-02T09:30:41.127Z,23.03
2016-09-02T09:31:41.162Z,22.96
2016-09-02T09:32:41.131Z,22.88
2016-09-02T09:33:41.154Z,22.96
2016-09-02T09:34:41.150Z,23.06
2016-09-02T09:35:41.170Z,23.06
2016-09-02T09:36:41.162Z,23
2016-09-02T09:37:41.081Z,23.04
2016-09-02T09:38:41.071Z,23
2016-09-02T09:39:41.093Z,23
2016-09-02T09:40:41.130Z,23.03
2016-09-02T09:41:41.107Z,23
2016-09-02T09:42:41.111Z,22.99
2016-09-02T09:43:41.124Z,23
2016-09-02T09:44:41.118Z,23.15
2016-09-02T09:45:41.123Z,23.16
2016-09-02T09:46:41.146Z,23.24
2016-09-02T09:47:41.152Z,23.18
2016-09-02T09:48:41.147Z,23.26
2016-09-02T09:49:41.155Z,23.18
2016-09-02T09:50:41.077Z,23.22
2016-09-02T09:51:41.071Z,23.25
2016-09-02T09:52:41.083Z,23.26
2016-09-02T09:53:41.088Z,23.18
2016-09-02T09:54:41.104Z,23.24
2016-09-02T09:55:41.101Z,23.24
2016-09-02T09:56:41.110Z,23.28
2016-09-02T09:57:41.133Z,23.26
2016-09-02T09:58:41.135Z,23.21
2016-09-02T09:59:41.132Z,23.22
2016-09-02T10:00:41.138Z,23.07
2016-09-02T10:01:41.146Z,23.14
2016-09-02T10:02:41.065Z,23.16
2016-09-02T10:03:41.076Z,23.21
2016-09-02T10:04:41.144Z,23.21
2016-09-02T10:05:41.064Z,23.19
2016-09-02T10:06:41.091Z,23.18
2016-09-02T10:07:41.092Z,23.22
2016-09-02T10:08:41.111Z,23.28
2016-09-02T10:09:41.091Z,23.22
2016-09-02T10:10:41.101Z,23.34
2016-09-02T10:11:41.839Z,23.35
2016-09-02T10:12:41.173Z,23.25
2016-09-02T10:13:41.143Z,23.37
2016-09-02T10:14:41.130Z,23.29
2016-09-02T10:15:41.115Z,23.24
2016-09-02T10:16:41.045Z,23.14
2016-09-02T10:17:41.194Z,23.1
2016-09-02T10:18:41.067Z,22.97
2016-09-02T10:19:41.078Z,22.91
2016-09-02T10:20:41.071Z,22.84
2016-09-02T10:21:41.097Z,22.85
2016-09-02T10:22:41.101Z,22.82
2016-09-02T10:23:41.094Z,23
2016-09-02T10:24:41.128Z,23.03
2016-09-02T10:25:41.121Z,23
2016-09-02T10:26:41.114Z,22.96
2016-09-02T10:27:41.119Z,23.01
2016-09-02T10:28:41.108Z,22.86
2016-09-02T10:29:41.114Z,22.85
2016-09-02T10:30:41.133Z,22.91
2016-09-02T10:31:41.139Z,22.91
2016-09-02T10:32:41.067Z,23
2016-09-02T10:33:41.073Z,23
2016-09-02T10:34:41.071Z,23.12
2016-09-02T10:35:41.118Z,23.1
2016-09-02T10:36:41.107Z,23.16
2016-09-02T10:37:41.131Z,23.21
2016-09-02T10:38:41.118Z,23.26
2016-09-02T10:39:41.114Z,23.28
2016-09-02T10:40:41.221Z,23.22
2016-09-02T10:41:41.110Z,23.24
2016-09-02T10:42:41.110Z,23.38
2016-09-02T10:43:41.105Z,23.28
2016-09-02T10:44:41.111Z,23.34
2016-09-02T10:45:41.127Z,23.4
2016-09-02T10:46:41.132Z,23.38
2016-09-02T10:47:41.103Z,23.26
2016-09-02T10:48:41.077Z,23.35
2016-09-02T10:49:41.079Z,23.37
2016-09-02T10:50:41.292Z,23.34
2016-09-02T10:51:46.359Z,23.15
2016-09-02T10:52:41.101Z,22.99
2016-09-02T10:53:41.079Z,22.97
2016-09-02T10:54:41.091Z,22.94
2016-09-02T10:55:41.191Z,22.96
2016-09-02T10:56:43.345Z,23.15
2016-09-02T10:57:44.284Z,23.16
2016-09-02T10:58:41.270Z,23.26
2016-09-02T10:59:41.179Z,23.14
2016-09-02T11:00:41.128Z,23.03
2016-09-02T11:01:41.137Z,22.99
2016-09-02T11:02:41.151Z,22.94
2016-09-02T11:03:41.151Z,22.94
2016-09-02T11:04:41.163Z,22.91
2016-09-02T11:05:41.061Z,22.92
2016-09-02T11:06:41.071Z,22.86
2016-09-02T11:07:41.106Z,22.85
2016-09-02T11:08:41.088Z,22.82
2016-09-02T11:09:41.114Z,22.84
2016-09-02T11:10:41.115Z,22.86
2016-09-02T11:11:41.117Z,22.86
2016-09-02T11:12:41.132Z,22.76
2016-09-02T11:13:41.327Z,22.75
2016-09-02T11:14:41.125Z,22.89
2016-09-02T11:15:41.131Z,23.01
2016-09-02T11:16:41.140Z,23
2016-09-02T11:17:41.057Z,22.89
2016-09-02T11:18:41.057Z,22.81
2016-09-02T11:19:41.176Z,22.88
2016-09-02T11:20:41.078Z,22.94
2016-09-02T11:21:41.109Z,23
2016-09-02T11:22:41.095Z,23.16
2016-09-02T11:23:41.187Z,23.19
2016-09-02T11:24:41.098Z,23.26
2016-09-02T11:25:41.134Z,23.21
2016-09-02T11:26:41.124Z,23.26
2016-09-02T11:27:41.159Z,23.29
2016-09-02T11:28:41.220Z,23.28
2016-09-02T11:29:41.139Z,23.45
2016-09-02T11:30:45.286Z,23.47
2016-09-02T11:32:14.856Z,23.45
2016-09-02T11:35:09.515Z,23.42
2016-09-02T11:35:28.397Z,23.45
2016-09-02T11:36:27.972Z,23.52
2016-09-02T11:37:27.975Z,23.62
2016-09-02T11:38:27.991Z,23.72
2016-09-02T11:39:27.994Z,23.78
2016-09-02T11:40:27.973Z,23.67
2016-09-02T11:41:27.980Z,23.7
2016-09-02T11:42:27.986Z,23.6
2016-09-02T11:43:28.038Z,23.44
2016-09-02T11:44:27.994Z,23.5
2016-09-02T11:45:28.000Z,23.48
2016-09-02T11:46:28.006Z,23.42
2016-09-02T11:47:28.005Z,23.45
2016-09-02T11:48:28.014Z,23.48
2016-09-02T11:49:28.011Z,23.62
2016-09-02T11:50:27.993Z,23.59
2016-09-02T11:51:28.000Z,23.66
2016-09-02T11:52:28.049Z,23.64
2016-09-02T11:53:28.916Z,23.63
2016-09-02T11:54:28.926Z,23.63
2016-09-02T11:55:28.795Z,23.72
2016-09-02T11:56:28.029Z,23.81
2016-09-02T11:57:28.026Z,24.03
2016-09-02T11:58:28.015Z,24.12
2016-09-02T11:59:28.013Z,24.29
2016-09-02T12:00:28.160Z,24.33
2016-09-02T12:01:28.032Z,24.34
2016-09-02T12:02:28.035Z,24.24
2016-09-02T12:03:28.019Z,24.37
2016-09-02T12:04:28.072Z,24.48
2016-09-02T12:05:28.012Z,24.46
2016-09-02T12:06:28.029Z,24.45
2016-09-02T12:07:28.028Z,24.39
2016-09-02T12:08:28.030Z,24.36
2016-09-02T12:09:28.931Z,24.26
2016-09-02T12:10:28.365Z,24.24
2016-09-02T12:11:28.944Z,24.15
2016-09-02T12:12:28.045Z,24.11
2016-09-02T12:13:28.071Z,24.02
2016-09-02T12:14:28.039Z,23.89
2016-09-02T12:15:28.039Z,23.78
2016-09-02T12:16:28.061Z,23.72
2016-09-02T12:17:28.043Z,23.64
2016-09-02T12:18:28.063Z,23.57
2016-09-02T12:19:28.048Z,23.53
2016-09-02T12:20:28.090Z,23.66
2016-09-02T12:21:28.057Z,23.44
2016-09-02T12:22:28.048Z,23.53
2016-09-02T12:23:28.061Z,23.4
2016-09-02T12:24:28.087Z,23.52
2016-09-02T12:25:28.095Z,23.45
2016-09-02T12:26:28.090Z,23.41
2016-09-02T12:27:28.059Z,23.5
2016-09-02T12:28:28.067Z,23.56
2016-09-02T12:29:28.081Z,23.64
2016-09-02T12:30:28.071Z,23.74
2016-09-02T12:31:28.066Z,23.82
2016-09-02T12:32:28.072Z,23.99
2016-09-02T12:33:28.086Z,23.97
2016-09-02T12:34:28.077Z,24
2016-09-02T12:35:28.090Z,23.94
2016-09-02T12:36:28.087Z,24
2016-09-02T12:37:28.087Z,24
2016-09-02T12:38:28.903Z,23.97
2016-09-02T12:39:28.084Z,24.15
2016-09-02T12:40:28.104Z,24.12
2016-09-02T12:41:28.100Z,24.15
2016-09-02T12:42:28.106Z,24.21
2016-09-02T12:43:28.164Z,24.24
2016-09-02T12:44:28.098Z,24.19
2016-09-02T12:45:28.103Z,24.24
2016-09-02T12:46:28.095Z,24.26
2016-09-02T12:47:28.094Z,24.26
2016-09-02T12:48:28.107Z,24.27
2016-09-02T12:49:28.108Z,24.39
2016-09-02T12:50:28.102Z,24.34
2016-09-02T12:51:28.103Z,24.34
2016-09-02T12:52:28.108Z,24.34
2016-09-02T12:53:28.917Z,24.36
2016-09-02T12:54:28.129Z,24.27
2016-09-02T12:55:28.176Z,24.3
2016-09-02T12:56:28.131Z,24.39
2016-09-02T12:57:28.122Z,24.48
2016-09-02T12:58:28.151Z,24.44